createdAt,value
2022-12-18T00:01:43.935Z,8.52
2022-12-18T00:03:44.568Z,8.49
2022-12-18T00:05:43.931Z,8.48
2022-12-18T00:09:08.343Z,8.52
2022-12-18T00:11:08.309Z,8.48
2022-12-18T00:13:09.998Z,8.37
2022-12-18T00:15:08.575Z,8.34
2022-12-18T00:17:08.318Z,8.25
2022-12-18T00:19:08.318Z,8.11
2022-12-18T00:21:08.342Z,8.24
2022-12-18T00:23:55.886Z,8.3
2022-12-18T00:25:55.861Z,8.13
2022-12-18T00:27:55.882Z,8.11
2022-12-18T00:29:55.888Z,8.06
2022-12-18T00:31:55.890Z,7.83
2022-12-18T00:33:55.956Z,7.97
2022-12-18T00:35:55.871Z,7.91
2022-12-18T00:39:39.761Z,7.79
2022-12-18T00:41:39.728Z,7.76
2022-12-18T00:43:40.182Z,7.87
2022-12-18T00:45:39.769Z,7.69
2022-12-18T00:47:39.675Z,7.65
2022-12-18T00:49:40.055Z,7.68
2022-12-18T00:51:39.680Z,7.6
2022-12-18T00:54:22.624Z,7.53
2022-12-18T00:56:22.594Z,7.48
2022-12-18T00:58:22.586Z,7.52
2022-12-18T01:00:22.664Z,7.38
2022-12-18T01:02:22.638Z,7.6
2022-12-18T01:04:22.577Z,7.44
2022-12-18T01:06:22.614Z,7.32
2022-12-18T01:09:44.179Z,7.46
2022-12-18T01:11:44.213Z,7.52
2022-12-18T01:13:44.170Z,7.43
2022-12-18T01:15:44.169Z,7.33
2022-12-18T01:17:44.232Z,7.27
2022-12-18T01:19:44.200Z,7.39
2022-12-18T01:21:44.201Z,7.34
2022-12-18T01:24:23.795Z,7.23
2022-12-18T01:26:23.831Z,7.45
2022-12-18T01:28:29.803Z,7.4
2022-12-18T01:30:23.816Z,7.24
2022-12-18T01:32:23.786Z,7.15
2022-12-18T01:34:23.824Z,7.31
2022-12-18T01:36:23.810Z,7.24
2022-12-18T01:38:23.805Z,7.4
2022-12-18T01:40:18.979Z,7.31
2022-12-18T01:42:18.929Z,7.14
2022-12-18T01:44:18.788Z,7.27
2022-12-18T01:46:18.854Z,7.35
2022-12-18T01:48:18.845Z,7.17
2022-12-18T01:50:18.919Z,7.09
2022-12-18T01:52:18.844Z,7.13
2022-12-18T01:55:25.149Z,6.96
2022-12-18T01:57:25.172Z,7.09
2022-12-18T01:59:25.148Z,6.93
2022-12-18T02:01:25.295Z,7.09
2022-12-18T02:03:25.301Z,7.09
2022-12-18T02:05:25.361Z,7.02
2022-12-18T02:07:25.150Z,7.04
2022-12-18T02:09:53.030Z,6.75
2022-12-18T02:11:52.996Z,6.94
2022-12-18T02:13:53.110Z,6.94
2022-12-18T02:15:53.000Z,6.99
2022-12-18T02:17:52.977Z,6.85
2022-12-18T02:19:53.006Z,6.76
2022-12-18T02:21:52.984Z,6.62
2022-12-18T02:23:53.068Z,6.63
2022-12-18T02:25:27.974Z,6.65
2022-12-18T02:27:27.957Z,6.72
2022-12-18T02:29:28.124Z,6.79
2022-12-18T02:31:28.006Z,6.72
2022-12-18T02:33:27.965Z,6.62
2022-12-18T02:35:28.139Z,6.66
2022-12-18T02:37:27.975Z,6.67
2022-12-18T02:40:47.387Z,6.62
2022-12-18T02:42:47.379Z,6.53
2022-12-18T02:44:47.521Z,6.56
2022-12-18T02:46:47.384Z,6.44
2022-12-18T02:48:47.382Z,6.33
2022-12-18T02:50:47.403Z,6.55
2022-12-18T02:52:47.368Z,6.58
2022-12-18T02:56:11.605Z,6.62
2022-12-18T02:58:11.590Z,6.5
2022-12-18T03:00:11.731Z,6.58
2022-12-18T03:02:11.854Z,6.49
2022-12-18T03:04:11.631Z,6.46
2022-12-18T03:06:11.536Z,6.49
2022-12-18T03:08:11.547Z,6.41
2022-12-18T03:11:01.941Z,6.42
2022-12-18T03:13:01.918Z,6.52
2022-12-18T03:15:02.077Z,6.46
2022-12-18T03:17:02.067Z,6.35
2022-12-18T03:19:01.922Z,6.41
2022-12-18T03:21:01.940Z,6.49
2022-12-18T03:23:01.943Z,6.29
2022-12-18T03:25:38.518Z,6.21
2022-12-18T03:27:38.401Z,6.14
2022-12-18T03:29:38.459Z,6.02
2022-12-18T03:31:38.461Z,6.15
2022-12-18T03:33:38.766Z,6.19
2022-12-18T03:35:38.434Z,6.27
2022-12-18T03:37:38.415Z,6.07
2022-12-18T03:39:38.381Z,6.19
2022-12-18T03:41:40.180Z,6.25
2022-12-18T03:43:40.475Z,6.15
2022-12-18T03:45:40.125Z,6.2
2022-12-18T03:47:40.137Z,6.12
2022-12-18T03:49:40.215Z,5.92
2022-12-18T03:51:40.130Z,6.19
2022-12-18T03:53:40.455Z,6.11
2022-12-18T03:56:43.698Z,6.24
2022-12-18T03:58:43.835Z,6.08
2022-12-18T04:00:43.708Z,6.11
2022-12-18T04:02:43.937Z,6.2
2022-12-18T04:04:43.920Z,6.18
2022-12-18T04:06:43.695Z,6.17
2022-12-18T04:08:43.717Z,6.2
2022-12-18T04:11:09.067Z,5.94
2022-12-18T04:13:09.046Z,5.96
2022-12-18T04:15:09.291Z,5.95
2022-12-18T04:17:09.064Z,5.84
2022-12-18T04:19:09.109Z,5.91
2022-12-18T04:21:09.178Z,5.9
2022-12-18T04:23:09.079Z,5.99
2022-12-18T04:25:09.147Z,5.93
2022-12-18T04:27:07.888Z,5.78
2022-12-18T04:29:07.907Z,5.8
2022-12-18T04:31:07.969Z,6.02
2022-12-18T04:33:07.861Z,6.08
2022-12-18T04:35:07.908Z,5.97
2022-12-18T04:37:08.013Z,5.83
2022-12-18T04:39:07.861Z,5.88
2022-12-18T04:41:32.136Z,5.77
2022-12-18T04:43:32.155Z,5.84
2022-12-18T04:45:32.198Z,5.9
2022-12-18T04:47:32.192Z,5.98
2022-12-18T04:49:32.169Z,6.04
2022-12-18T04:51:32.137Z,5.88
2022-12-18T04:53:32.241Z,5.77
2022-12-18T04:55:32.112Z,5.74
2022-12-18T04:56:57.108Z,5.69
2022-12-18T04:58:57.103Z,5.7
2022-12-18T05:00:57.146Z,5.64
2022-12-18T05:02:57.167Z,5.71
2022-12-18T05:04:57.102Z,5.9
2022-12-18T05:06:57.121Z,5.86
2022-12-18T05:08:57.268Z,5.92
2022-12-18T05:12:36.565Z,5.7
2022-12-18T05:14:36.517Z,5.79
2022-12-18T05:16:36.518Z,5.82
2022-12-18T05:18:36.560Z,5.89
2022-12-18T05:20:36.514Z,5.88
2022-12-18T05:22:36.515Z,5.74
2022-12-18T05:24:36.672Z,5.8
2022-12-18T05:27:21.946Z,5.94
2022-12-18T05:29:22.016Z,5.99
2022-12-18T05:31:22.034Z,5.9
2022-12-18T05:33:22.007Z,5.78
2022-12-18T05:35:21.948Z,5.8
2022-12-18T05:37:21.935Z,5.73
2022-12-18T05:39:22.040Z,5.55
2022-12-18T05:42:44.079Z,5.76
2022-12-18T05:44:43.965Z,5.63
2022-12-18T05:46:43.983Z,5.79
2022-12-18T05:48:44.027Z,5.78
2022-12-18T05:50:43.936Z,5.59
2022-12-18T05:52:43.969Z,5.73
2022-12-18T05:54:43.994Z,5.57
2022-12-18T05:57:34.974Z,5.81
2022-12-18T05:59:35.100Z,5.8
2022-12-18T06:01:35.118Z,5.71
2022-12-18T06:03:35.061Z,5.63
2022-12-18T06:05:34.996Z,5.66
2022-12-18T06:07:34.946Z,5.6
2022-12-18T06:09:35.011Z,5.6
2022-12-18T06:12:28.026Z,5.69
2022-12-18T06:14:28.139Z,5.61
2022-12-18T06:16:28.242Z,5.56
2022-12-18T06:18:28.023Z,5.45
2022-12-18T06:20:33.175Z,5.53
2022-12-18T06:22:28.046Z,5.63
2022-12-18T06:24:28.081Z,5.68
2022-12-18T06:26:28.732Z,5.72
2022-12-18T06:28:03.923Z,5.57
2022-12-18T06:30:03.871Z,5.58
2022-12-18T06:32:04.068Z,5.6
2022-12-18T06:34:03.967Z,5.65
2022-12-18T06:36:03.880Z,5.66
2022-12-18T06:38:03.890Z,5.69
2022-12-18T06:40:03.902Z,5.7
2022-12-18T06:43:00.283Z,5.6
2022-12-18T06:45:00.173Z,5.7
2022-12-18T06:47:00.274Z,5.82
2022-12-18T06:49:00.630Z,5.78
2022-12-18T06:51:00.174Z,5.71
2022-12-18T06:53:00.349Z,5.85
2022-12-18T06:55:00.151Z,5.73
2022-12-18T06:58:10.968Z,5.86
2022-12-18T07:00:10.934Z,5.73
2022-12-18T07:02:11.097Z,5.53
2022-12-18T07:04:11.051Z,5.62
2022-12-18T07:06:10.910Z,5.65
2022-12-18T07:08:10.909Z,5.66
2022-12-18T07:10:10.947Z,5.37
2022-12-18T07:13:09.789Z,5.52
2022-12-18T07:15:09.694Z,5.61
2022-12-18T07:17:09.780Z,5.68
2022-12-18T07:19:09.539Z,5.8
2022-12-18T07:21:09.762Z,5.84
2022-12-18T07:23:09.585Z,5.91
2022-12-18T07:25:09.552Z,5.94
2022-12-18T07:27:09.559Z,5.66
2022-12-18T07:28:17.130Z,5.74
2022-12-18T07:30:12.605Z,5.86
2022-12-18T07:32:12.391Z,5.82
2022-12-18T07:34:12.411Z,5.52
2022-12-18T07:36:12.392Z,5.84
2022-12-18T07:38:12.538Z,5.86
2022-12-18T07:40:12.387Z,6.07
2022-12-18T07:42:12.436Z,6.07
2022-12-18T07:43:32.704Z,5.99
2022-12-18T07:45:32.733Z,5.98
2022-12-18T07:47:32.715Z,5.78
2022-12-18T07:49:32.688Z,5.9
2022-12-18T07:51:32.728Z,6.1
2022-12-18T07:53:32.851Z,6.05
2022-12-18T07:55:48.096Z,5.77
2022-12-18T07:58:39.324Z,5.69
2022-12-18T08:00:39.212Z,5.83
2022-12-18T08:02:39.364Z,5.7
2022-12-18T08:04:39.182Z,5.91
2022-12-18T08:06:40.907Z,5.7
2022-12-18T08:08:39.443Z,5.83
2022-12-18T08:10:39.175Z,6.02
2022-12-18T08:12:39.181Z,6.07
2022-12-18T08:14:38.939Z,6.09
2022-12-18T08:16:38.946Z,5.69
2022-12-18T08:18:38.903Z,5.55
2022-12-18T08:20:38.935Z,5.51
2022-12-18T08:22:38.925Z,5.47
2022-12-18T08:24:39.047Z,5.87
2022-12-18T08:26:38.899Z,5.82
2022-12-18T08:29:21.538Z,5.98
2022-12-18T08:31:18.563Z,6.1
2022-12-18T08:33:18.581Z,6.12
2022-12-18T08:35:18.846Z,6.13
2022-12-18T08:37:18.463Z,6.14
2022-12-18T08:39:18.503Z,5.88
2022-12-18T08:41:18.568Z,5.9
2022-12-18T08:44:24.169Z,6.24
2022-12-18T08:46:24.143Z,6.05
2022-12-18T08:48:24.189Z,6.15
2022-12-18T08:50:24.143Z,6.13
2022-12-18T08:52:24.205Z,5.99
2022-12-18T08:54:24.205Z,5.93
2022-12-18T08:56:24.305Z,5.75
2022-12-18T09:00:06.346Z,5.98
2022-12-18T09:02:06.594Z,6.08
2022-12-18T09:04:06.318Z,6.09
2022-12-18T09:06:06.344Z,5.99
2022-12-18T09:08:06.306Z,6.08
2022-12-18T09:10:06.290Z,5.98
2022-12-18T09:12:06.439Z,5.96
2022-12-18T09:14:49.070Z,6.06
2022-12-18T09:16:49.086Z,5.96
2022-12-18T09:18:48.960Z,6.09
2022-12-18T09:20:49.003Z,6.2
2022-12-18T09:22:49.025Z,6.12
2022-12-18T09:24:48.946Z,6.1
2022-12-18T09:26:49.996Z,6.09
2022-12-18T09:29:46.756Z,5.81
2022-12-18T09:31:47.182Z,6
2022-12-18T09:33:46.615Z,6.25
2022-12-18T09:35:46.734Z,6.21
2022-12-18T09:37:46.537Z,6.47
2022-12-18T09:39:46.527Z,6.62
2022-12-18T09:41:46.559Z,6.72
2022-12-18T09:45:24.984Z,6.8
2022-12-18T09:47:24.830Z,6.85
2022-12-18T09:49:25.351Z,6.89
2022-12-18T09:51:24.790Z,6.73
2022-12-18T09:53:24.866Z,6.86
2022-12-18T09:55:24.804Z,6.74
2022-12-18T09:57:24.852Z,6.88
2022-12-18T10:00:29.873Z,6.93
2022-12-18T10:02:29.967Z,7.03
2022-12-18T10:04:29.815Z,6.69
2022-12-18T10:06:29.763Z,6.65
2022-12-18T10:08:30.110Z,6.64
2022-12-18T10:10:29.833Z,6.69
2022-12-18T10:12:29.759Z,6.79
2022-12-18T10:15:51.022Z,6.49
2022-12-18T10:17:50.844Z,6.58
2022-12-18T10:19:51.042Z,6.88
2022-12-18T10:21:50.841Z,6.83
2022-12-18T10:23:50.905Z,6.9
2022-12-18T10:25:50.890Z,7.04
2022-12-18T10:27:50.841Z,6.89
2022-12-18T10:30:52.311Z,6.8
2022-12-18T10:32:52.465Z,6.84
2022-12-18T10:34:58.242Z,6.79
2022-12-18T10:36:52.308Z,6.94
2022-12-18T10:38:52.274Z,6.62
2022-12-18T10:40:52.299Z,6.7
2022-12-18T10:42:52.248Z,6.88
2022-12-18T10:45:48.469Z,6.83
2022-12-18T10:47:48.451Z,6.98
2022-12-18T10:49:48.565Z,6.83
2022-12-18T10:51:48.536Z,6.77
2022-12-18T10:53:48.464Z,6.95
2022-12-18T10:55:48.500Z,6.94
2022-12-18T10:57:48.493Z,7.05
2022-12-18T11:01:20.081Z,7.05
2022-12-18T11:03:19.937Z,7.23
2022-12-18T11:05:20.030Z,7.2
2022-12-18T11:07:19.990Z,7.12
2022-12-18T11:09:19.951Z,7.22
2022-12-18T11:11:19.888Z,7.31
2022-12-18T11:13:19.897Z,7.15
2022-12-18T11:16:04.773Z,7.11
2022-12-18T11:18:04.614Z,7.23
2022-12-18T11:20:04.569Z,7.32
2022-12-18T11:22:10.064Z,7.43
2022-12-18T11:24:04.728Z,7.55
2022-12-18T11:26:04.621Z,7.36
2022-12-18T11:28:04.568Z,7.21
2022-12-18T11:31:12.058Z,7.34
2022-12-18T11:33:12.040Z,7.23
2022-12-18T11:35:11.990Z,7.05
2022-12-18T11:37:12.018Z,6.96
2022-12-18T11:39:12.162Z,7.21
2022-12-18T11:41:12.038Z,6.94
2022-12-18T11:43:12.003Z,7.1
2022-12-18T11:46:07.747Z,7.32
2022-12-18T11:48:07.706Z,7.49
2022-12-18T11:50:07.716Z,6.99
2022-12-18T11:52:07.748Z,7.22
2022-12-18T11:54:07.691Z,6.77
2022-12-18T11:56:13.621Z,7.1
2022-12-18T11:58:07.799Z,7.31
2022-12-18T12:00:07.688Z,7.03
2022-12-18T12:02:01.983Z,6.89
2022-12-18T12:04:01.856Z,6.43
2022-12-18T12:06:01.833Z,6.76
2022-12-18T12:08:01.907Z,7.02
2022-12-18T12:10:01.787Z,7.1
2022-12-18T12:12:01.792Z,7.03
2022-12-18T12:14:01.931Z,7.09
2022-12-18T12:17:11.728Z,7.03
2022-12-18T12:19:11.717Z,7.13
2022-12-18T12:21:11.722Z,7.19
2022-12-18T12:23:11.713Z,7.41
2022-12-18T12:25:11.891Z,7.28
2022-12-18T12:27:11.715Z,7.33
2022-12-18T12:29:13.406Z,7.4
2022-12-18T12:32:23.081Z,7.19
2022-12-18T12:34:23.059Z,7.38
2022-12-18T12:36:23.061Z,7.29
2022-12-18T12:38:23.174Z,7.35
2022-12-18T12:40:50.043Z,7.38
2022-12-18T12:42:23.053Z,7.4
2022-12-18T12:44:23.167Z,7.3
2022-12-18T12:46:54.291Z,7.54
2022-12-18T12:48:54.238Z,7.34
2022-12-18T12:50:54.188Z,7.59
2022-12-18T12:52:54.244Z,7.6
2022-12-18T12:54:54.196Z,7.57
2022-12-18T12:56:54.239Z,7.46
2022-12-18T12:58:54.185Z,7.53
2022-12-18T13:01:51.198Z,7.29
2022-12-18T13:03:50.976Z,6.59
2022-12-18T13:05:50.961Z,6.38
2022-12-18T13:07:51.061Z,6.93
2022-12-18T13:09:50.962Z,6.99
2022-12-18T13:13:51.421Z,7.12
2022-12-18T13:15:50.967Z,6.98
2022-12-18T13:17:18.983Z,7.15
2022-12-18T13:19:18.818Z,7.04
2022-12-18T13:21:18.877Z,6.98
2022-12-18T13:23:18.872Z,6.93
2022-12-18T13:25:18.806Z,6.94
2022-12-18T13:27:18.806Z,6.75
2022-12-18T13:29:18.805Z,6.76
2022-12-18T13:32:35.332Z,6.99
2022-12-18T13:34:35.464Z,7
2022-12-18T13:36:35.295Z,7.12
2022-12-18T13:38:35.330Z,7.04
2022-12-18T13:40:35.147Z,6.94
2022-12-18T13:42:35.211Z,6.77
2022-12-18T13:44:40.167Z,6.66
2022-12-18T13:48:03.446Z,6.69
2022-12-18T13:50:03.664Z,6.62
2022-12-18T13:52:03.684Z,6.69
2022-12-18T13:54:03.320Z,6.42
2022-12-18T13:56:03.461Z,6.44
2022-12-18T13:58:03.681Z,6.51
2022-12-18T14:00:03.408Z,6.54
2022-12-18T14:02:36.478Z,6.44
2022-12-18T14:04:36.389Z,6.23
2022-12-18T14:06:36.242Z,6.28
2022-12-18T14:08:36.250Z,6.16
2022-12-18T14:10:46.005Z,6.22
2022-12-18T14:12:36.272Z,6.15
2022-12-18T14:14:36.252Z,6.19
2022-12-18T14:16:36.246Z,6.18
2022-12-18T14:18:10.062Z,6.25
2022-12-18T14:20:10.119Z,6.15
2022-12-18T14:22:09.973Z,5.79
2022-12-18T14:24:10.259Z,5.85
2022-12-18T14:26:09.967Z,5.74
2022-12-18T14:28:09.950Z,5.73
2022-12-18T14:30:10.044Z,5.91
2022-12-18T14:33:33.789Z,5.97
2022-12-18T14:35:39.020Z,6.03
2022-12-18T14:37:33.886Z,6.07
2022-12-18T14:39:33.743Z,5.99
2022-12-18T14:41:33.770Z,5.76
2022-12-18T14:43:33.760Z,5.83
2022-12-18T14:45:39.387Z,5.86
2022-12-18T14:48:50.884Z,5.8
2022-12-18T14:50:50.962Z,5.71
2022-12-18T14:52:51.021Z,5.68
2022-12-18T14:54:50.852Z,5.54
2022-12-18T14:56:50.904Z,5.57
2022-12-18T14:58:50.880Z,5.59
2022-12-18T15:00:50.899Z,5.54
2022-12-18T15:03:16.734Z,5.52
2022-12-18T15:05:16.682Z,5.61
2022-12-18T15:07:16.716Z,5.57
2022-12-18T15:09:16.790Z,5.57
2022-12-18T15:11:16.714Z,5.61
2022-12-18T15:13:16.783Z,5.37
2022-12-18T15:15:16.654Z,5.39
2022-12-18T15:18:25.584Z,5.43
2022-12-18T15:20:25.602Z,5.63
2022-12-18T15:22:25.884Z,5.58
2022-12-18T15:24:25.701Z,5.66
2022-12-18T15:26:25.628Z,5.6
2022-12-18T15:28:25.632Z,5.61
2022-12-18T15:30:25.577Z,5.64
2022-12-18T15:32:25.648Z,5.59
2022-12-18T15:34:08.567Z,5.55
2022-12-18T15:36:08.542Z,5.41
2022-12-18T15:38:08.553Z,5.44
2022-12-18T15:40:08.706Z,5.44
2022-12-18T15:42:08.552Z,5.51
2022-12-18T15:44:08.560Z,5.56
2022-12-18T15:46:08.557Z,5.62
2022-12-18T15:48:59.726Z,5.67
2022-12-18T15:50:54.647Z,5.64
2022-12-18T15:52:54.627Z,5.63
2022-12-18T15:54:54.645Z,5.5
2022-12-18T15:56:54.731Z,5.54
2022-12-18T15:58:54.651Z,5.47
2022-12-18T16:00:54.625Z,5.52
2022-12-18T16:04:44.282Z,5.58
2022-12-18T16:07:13.089Z,5.6
2022-12-18T16:08:44.281Z,5.58
2022-12-18T16:10:44.330Z,5.46
2022-12-18T16:12:44.597Z,5.42
2022-12-18T16:14:44.268Z,5.29
2022-12-18T16:16:44.280Z,5.35
2022-12-18T16:19:31.282Z,5.27
2022-12-18T16:21:34.036Z,5.17
2022-12-18T16:23:31.241Z,5.19
2022-12-18T16:25:31.257Z,5.18
2022-12-18T16:27:31.221Z,5.07
2022-12-18T16:29:31.355Z,5.17
2022-12-18T16:31:31.474Z,5.13
2022-12-18T16:34:17.610Z,5.09
2022-12-18T16:36:17.605Z,5.21
2022-12-18T16:38:17.654Z,5.18
2022-12-18T16:40:17.594Z,5.13
2022-12-18T16:42:17.727Z,5.26
2022-12-18T16:44:17.644Z,5.1
2022-12-18T16:46:17.809Z,5.21
2022-12-18T16:49:24.297Z,5.18
2022-12-18T16:51:24.348Z,5.12
2022-12-18T16:53:24.284Z,5.08
2022-12-18T16:55:24.344Z,5.17
2022-12-18T16:57:25.312Z,5.16
2022-12-18T16:59:24.319Z,5
2022-12-18T17:01:24.597Z,4.99
2022-12-18T17:04:52.573Z,5.02
2022-12-18T17:06:52.574Z,5.08
2022-12-18T17:08:52.569Z,5.08
2022-12-18T17:10:52.567Z,5.14
2022-12-18T17:12:52.668Z,5.04
2022-12-18T17:14:52.545Z,4.98
2022-12-18T17:17:19.053Z,4.87
2022-12-18T17:20:20.679Z,4.87
2022-12-18T17:22:20.701Z,4.72
2022-12-18T17:24:20.686Z,4.76
2022-12-18T17:26:20.739Z,4.82
2022-12-18T17:28:20.700Z,4.79
2022-12-18T17:30:20.699Z,4.82
2022-12-18T17:32:20.800Z,4.77
2022-12-18T17:35:16.649Z,4.85
2022-12-18T17:37:16.663Z,5
2022-12-18T17:39:16.653Z,4.98
2022-12-18T17:41:16.688Z,4.85
2022-12-18T17:43:16.691Z,4.82
2022-12-18T17:45:16.689Z,4.81
2022-12-18T17:47:16.652Z,4.63
2022-12-18T17:50:44.091Z,4.81
2022-12-18T17:52:43.940Z,4.82
2022-12-18T17:54:44.178Z,4.75
2022-12-18T17:56:43.925Z,4.73
2022-12-18T17:58:43.951Z,4.78
2022-12-18T18:00:43.925Z,4.92
2022-12-18T18:02:44.226Z,5.07
2022-12-18T18:05:57.878Z,5.14
2022-12-18T18:07:57.683Z,5.06
2022-12-18T18:09:57.714Z,5.06
2022-12-18T18:11:57.665Z,5.05
2022-12-18T18:13:57.705Z,5.16
2022-12-18T18:15:57.752Z,5.15
2022-12-18T18:17:57.680Z,5.18
2022-12-18T18:20:30.994Z,5.13
2022-12-18T18:22:31.274Z,4.93
2022-12-18T18:24:31.030Z,4.92
2022-12-18T18:26:31.024Z,4.97
2022-12-18T18:28:30.965Z,4.85
2022-12-18T18:30:30.969Z,4.81
2022-12-18T18:32:30.969Z,4.75
2022-12-18T18:35:54.537Z,4.55
2022-12-18T18:37:50.566Z,4.55
2022-12-18T18:39:50.429Z,4.59
2022-12-18T18:41:50.426Z,4.55
2022-12-18T18:43:50.417Z,4.57
2022-12-18T18:45:50.472Z,4.54
2022-12-18T18:47:50.430Z,4.47
2022-12-18T18:50:38.017Z,4.52
2022-12-18T18:52:38.052Z,4.57
2022-12-18T18:54:41.615Z,4.51
2022-12-18T18:57:03.681Z,4.39
2022-12-18T18:58:38.012Z,4.29
2022-12-18T19:00:38.364Z,4.17
2022-12-18T19:02:38.118Z,4.11
2022-12-18T19:04:40.939Z,3.97
2022-12-18T19:05:52.601Z,3.93
2022-12-18T19:07:52.514Z,3.8
2022-12-18T19:09:52.877Z,3.8
2022-12-18T19:11:52.382Z,3.49
2022-12-18T19:13:52.414Z,3.37
2022-12-18T19:15:52.749Z,3.4
2022-12-18T19:17:52.625Z,3.42
2022-12-18T19:19:52.378Z,3.37
2022-12-18T19:21:40.083Z,3.24
2022-12-18T19:23:40.088Z,3.13
2022-12-18T19:25:41.696Z,3.23
2022-12-18T19:27:39.963Z,3.3
2022-12-18T19:29:39.989Z,3.16
2022-12-18T19:31:39.982Z,2.99
2022-12-18T19:33:43.856Z,2.87
2022-12-18T19:36:43.771Z,2.8
2022-12-18T19:38:44.922Z,2.8
2022-12-18T19:40:43.880Z,2.68
2022-12-18T19:42:43.731Z,2.52
2022-12-18T19:44:43.809Z,2.52
2022-12-18T19:46:43.751Z,2.38
2022-12-18T19:48:44.241Z,2.35
2022-12-18T19:51:44.005Z,2.22
2022-12-18T19:53:44.005Z,2.15
2022-12-18T19:55:44.007Z,2.25
2022-12-18T19:57:44.161Z,2.23
2022-12-18T19:59:44.010Z,2.06
2022-12-18T20:01:44.195Z,2.17
2022-12-18T20:03:44.407Z,2.2
2022-12-18T20:06:40.795Z,2.2
2022-12-18T20:08:40.758Z,2.09
2022-12-18T20:10:40.756Z,2.05
2022-12-18T20:12:40.728Z,1.96
2022-12-18T20:14:40.915Z,1.88
2022-12-18T20:16:40.879Z,1.88
2022-12-18T20:18:40.742Z,1.9
2022-12-18T20:22:34.597Z,1.7
2022-12-18T20:24:34.553Z,1.62
2022-12-18T20:26:34.563Z,1.73
2022-12-18T20:28:34.602Z,1.65
2022-12-18T20:30:34.721Z,1.58
2022-12-18T20:32:37.170Z,1.53
2022-12-18T20:34:34.605Z,1.48
2022-12-18T20:37:26.131Z,1.44
2022-12-18T20:39:26.106Z,1.51
2022-12-18T20:41:26.191Z,1.23
2022-12-18T20:43:26.117Z,1.5
2022-12-18T20:45:26.457Z,1.4
2022-12-18T20:47:26.209Z,1.33
2022-12-18T20:49:26.080Z,1.26
2022-12-18T20:52:31.653Z,1.27
2022-12-18T20:54:31.695Z,1.27
2022-12-18T20:56:31.652Z,1.08
2022-12-18T20:58:31.999Z,1.23
2022-12-18T21:00:31.652Z,1.3
2022-12-18T21:02:31.944Z,1.21
2022-12-18T21:04:31.673Z,1.14
2022-12-18T21:08:03.467Z,1.14
2022-12-18T21:10:03.382Z,1.04
2022-12-18T21:12:03.423Z,1.26
2022-12-18T21:14:03.361Z,1.25
2022-12-18T21:16:03.390Z,1.19
2022-12-18T21:18:03.505Z,1.23
2022-12-18T21:20:03.376Z,1.2
2022-12-18T21:22:23.405Z,1.27
2022-12-18T21:24:23.371Z,1.17
2022-12-18T21:26:23.370Z,1.04
2022-12-18T21:28:23.368Z,1.09
2022-12-18T21:30:23.378Z,1.04
2022-12-18T21:32:23.640Z,1.12
2022-12-18T21:34:23.522Z,1.13
2022-12-18T21:37:57.399Z,1.12
2022-12-18T21:39:57.357Z,1.13
2022-12-18T21:41:57.357Z,1.15
2022-12-18T21:43:57.429Z,1.15
2022-12-18T21:45:57.366Z,1.03
2022-12-18T21:47:57.404Z,0.99
2022-12-18T21:49:57.452Z,1.17
2022-12-18T21:53:16.590Z,1.31
2022-12-18T21:55:16.531Z,1.09
2022-12-18T21:57:16.526Z,0.89
2022-12-18T21:59:16.585Z,0.95
2022-12-18T22:01:16.641Z,0.74
2022-12-18T22:03:18.013Z,0.7
2022-12-18T22:05:16.651Z,0.87
2022-12-18T22:07:59.273Z,0.76
2022-12-18T22:09:59.288Z,0.67
2022-12-18T22:11:59.292Z,0.69
2022-12-18T22:13:59.291Z,0.65
2022-12-18T22:15:59.279Z,0.53
2022-12-18T22:17:59.756Z,0.58
2022-12-18T22:19:59.289Z,0.59
2022-12-18T22:23:19.087Z,0.53
2022-12-18T22:25:18.998Z,0.46
2022-12-18T22:27:18.924Z,0.49
2022-12-18T22:29:18.951Z,0.39
2022-12-18T22:31:18.977Z,0.48
2022-12-18T22:33:18.974Z,0.43
2022-12-18T22:35:18.915Z,0.63
2022-12-18T22:38:59.323Z,0.72
2022-12-18T22:40:59.206Z,0.54
2022-12-18T22:42:59.174Z,0.6
2022-12-18T22:44:59.135Z,0.68
2022-12-18T22:47:05.894Z,0.72
2022-12-18T22:48:59.138Z,0.55
2022-12-18T22:50:59.614Z,0.72
2022-12-18T22:53:55.828Z,0.68
2022-12-18T22:55:55.944Z,0.67
2022-12-18T22:57:55.794Z,0.72
2022-12-18T22:59:55.784Z,0.63
2022-12-18T23:01:58.856Z,0.44
2022-12-18T23:03:55.817Z,0.6
2022-12-18T23:05:55.794Z,0.77
2022-12-18T23:08:39.228Z,0.74
2022-12-18T23:10:39.168Z,0.68
2022-12-18T23:12:39.318Z,0.72
2022-12-18T23:14:39.147Z,0.75
2022-12-18T23:16:39.197Z,0.8
2022-12-18T23:18:39.170Z,0.73
2022-12-18T23:20:39.147Z,0.74
2022-12-18T23:23:55.626Z,0.77
2022-12-18T23:25:55.596Z,0.82
2022-12-18T23:27:55.734Z,0.93
2022-12-18T23:29:55.583Z,0.84
2022-12-18T23:31:55.667Z,0.91
2022-12-18T23:33:55.578Z,0.95
2022-12-18T23:35:55.654Z,0.81
2022-12-18T23:38:51.572Z,0.83
2022-12-18T23:40:51.547Z,0.86
2022-12-18T23:42:51.575Z,0.79
2022-12-18T23:44:51.664Z,0.79
2022-12-18T23:46:51.626Z,0.68
2022-12-18T23:48:51.529Z,0.69
2022-12-18T23:50:51.538Z,0.75
2022-12-18T23:54:06.419Z,0.76
2022-12-18T23:56:06.387Z,0.67
2022-12-18T23:58:06.408Z,0.66
